createdAt,value
2023-01-12T00:01:57.161Z,100813.75
2023-01-12T00:04:25.008Z,100809.69
2023-01-12T00:06:52.745Z,100805.53
2023-01-12T00:09:20.490Z,100814.47
2023-01-12T00:11:48.337Z,100815.69
2023-01-12T00:14:16.130Z,100808.72
2023-01-12T00:16:44.197Z,100798.56
2023-01-12T00:19:15.646Z,100785.81
2023-01-12T00:21:55.250Z,100789.31
2023-01-12T00:24:24.487Z,100792.53
2023-01-12T00:26:54.240Z,100781.09
2023-01-12T00:29:22.552Z,100782.34
2023-01-12T00:31:50.516Z,100775.78
2023-01-12T00:34:19.715Z,100779.16
2023-01-12T00:36:48.671Z,100767.84
2023-01-12T00:39:17.423Z,100764.63
2023-01-12T00:42:03.125Z,100759.03
2023-01-12T00:44:48.991Z,100760.47
2023-01-12T00:47:17.989Z,100765.19
2023-01-12T00:49:47.649Z,100770.63
2023-01-12T00:52:29.386Z,100779.00
2023-01-12T00:54:58.048Z,100789.19
2023-01-12T00:57:25.814Z,100777.88
2023-01-12T00:59:55.080Z,100782.78
2023-01-12T01:02:23.659Z,100785.16
2023-01-12T01:04:52.790Z,100781.38
2023-01-12T01:07:21.652Z,100779.41
2023-01-12T01:09:49.804Z,100792.81
2023-01-12T01:12:17.862Z,100782.19
2023-01-12T01:14:45.709Z,100785.41
2023-01-12T01:17:13.434Z,100779.97
2023-01-12T01:19:41.114Z,100792.81
2023-01-12T01:22:10.169Z,100795.91
2023-01-12T01:24:37.922Z,100803.16
2023-01-12T01:27:05.643Z,100809.81
2023-01-12T01:29:33.304Z,100812.66
2023-01-12T01:32:01.009Z,100818.75
2023-01-12T01:34:28.858Z,100818.22
2023-01-12T01:36:56.521Z,100804.38
2023-01-12T01:39:25.577Z,100811.94
2023-01-12T01:41:53.341Z,100794.75
2023-01-12T01:44:51.402Z,100793.66
2023-01-12T01:47:26.979Z,100775.47
2023-01-12T01:50:00.798Z,100774.63
2023-01-12T01:52:32.614Z,100771.44
2023-01-12T01:55:06.768Z,100772.03
2023-01-12T01:57:40.770Z,100766.41
2023-01-12T02:00:11.633Z,100776.31
2023-01-12T02:02:40.238Z,100770.88
2023-01-12T02:05:08.892Z,100765.03
2023-01-12T02:07:36.899Z,100759.88
2023-01-12T02:10:06.879Z,100755.28
2023-01-12T02:12:52.167Z,100752.19
2023-01-12T02:15:37.433Z,100739.19
2023-01-12T02:18:15.297Z,100749.78
2023-01-12T02:20:52.122Z,100753.16
2023-01-12T02:23:43.432Z,100737.25
2023-01-12T02:26:43.703Z,100732.50
2023-01-12T02:29:46.704Z,100741.16
2023-01-12T02:32:27.277Z,100725.06
2023-01-12T02:35:06.392Z,100726.94
2023-01-12T02:37:39.784Z,100736.41
2023-01-12T02:40:12.250Z,100746.88
2023-01-12T02:42:41.655Z,100725.06
2023-01-12T02:45:20.536Z,100726.22
2023-01-12T02:47:56.611Z,100718.66
2023-01-12T02:50:32.776Z,100727.44
2023-01-12T02:53:07.448Z,100734.56
2023-01-12T02:55:35.843Z,100725.63
2023-01-12T02:58:07.453Z,100727.03
2023-01-12T03:00:38.875Z,100712.94
2023-01-12T03:03:08.102Z,100720.19
2023-01-12T03:05:35.779Z,100718.78
2023-01-12T03:08:06.730Z,100724.09
2023-01-12T03:11:02.784Z,100716.00
2023-01-12T03:13:34.309Z,100706.50
2023-01-12T03:16:03.781Z,100714.03
2023-01-12T03:18:36.323Z,100711.38
2023-01-12T03:21:08.560Z,100708.59
2023-01-12T03:23:42.088Z,100714.59
2023-01-12T03:26:14.168Z,100709.56
2023-01-12T03:28:47.152Z,100717.94
2023-01-12T03:31:16.753Z,100695.34
2023-01-12T03:33:47.105Z,100691.16
2023-01-12T03:36:30.480Z,100689.22
2023-01-12T03:39:09.936Z,100695.59
2023-01-12T03:41:47.284Z,100688.63
2023-01-12T03:44:21.584Z,100673.56
2023-01-12T03:46:56.615Z,100682.75
2023-01-12T03:49:33.555Z,100684.16
2023-01-12T03:52:03.298Z,100689.75
2023-01-12T03:54:33.124Z,100687.78
2023-01-12T03:57:02.696Z,100678.84
2023-01-12T03:59:30.481Z,100687.06
2023-01-12T04:01:58.348Z,100678.72
2023-01-12T04:04:27.387Z,100683.31
2023-01-12T04:06:55.083Z,100681.50
2023-01-12T04:09:25.413Z,100679.56
2023-01-12T04:12:11.772Z,100677.75
2023-01-12T04:14:40.515Z,100678.72
2023-01-12T04:17:10.097Z,100670.66
2023-01-12T04:19:39.241Z,100667.41
2023-01-12T04:22:24.673Z,100675.50
2023-01-12T04:24:52.476Z,100666.72
2023-01-12T04:27:20.145Z,100668.25
2023-01-12T04:29:47.848Z,100667.81
2023-01-12T04:32:15.548Z,100663.50
2023-01-12T04:34:45.156Z,100650.63
2023-01-12T04:37:12.902Z,100650.94
2023-01-12T04:39:40.625Z,100660.97
2023-01-12T04:42:29.001Z,100653.63
2023-01-12T04:44:56.665Z,100650.66
2023-01-12T04:47:27.158Z,100659.03
2023-01-12T04:49:56.342Z,100650.94
2023-01-12T04:52:23.972Z,100650.38
2023-01-12T04:54:51.663Z,100642.28
2023-01-12T04:57:19.306Z,100639.47
2023-01-12T04:59:47.024Z,100642.56
2023-01-12T05:02:14.782Z,100639.47
2023-01-12T05:04:42.784Z,100639.16
2023-01-12T05:07:12.091Z,100633.44
2023-01-12T05:09:57.476Z,100638.31
2023-01-12T05:12:25.136Z,100628.13
2023-01-12T05:14:53.129Z,100630.09
2023-01-12T05:17:20.843Z,100616.44
2023-01-12T05:19:49.622Z,100601.78
2023-01-12T05:22:18.797Z,100600.81
2023-01-12T05:24:46.561Z,100593.44
2023-01-12T05:27:14.293Z,100585.88
2023-01-12T05:29:42.047Z,100596.47
2023-01-12T05:32:09.725Z,100582.66
2023-01-12T05:34:37.415Z,100568.00
2023-01-12T05:37:05.084Z,100571.63
2023-01-12T05:39:34.162Z,100560.03
2023-01-12T05:42:19.512Z,100557.91
2023-01-12T05:44:47.256Z,100561.94
2023-01-12T05:47:14.940Z,100548.13
2023-01-12T05:49:42.697Z,100544.50
2023-01-12T05:52:10.457Z,100546.16
2023-01-12T05:54:39.488Z,100538.19
2023-01-12T05:57:07.147Z,100548.66
2023-01-12T05:59:34.850Z,100537.09
2023-01-12T06:02:02.466Z,100555.19
2023-01-12T06:04:32.062Z,100551.47
2023-01-12T06:06:59.819Z,100550.50
2023-01-12T06:09:27.491Z,100539.50
2023-01-12T06:12:14.308Z,100550.63
2023-01-12T06:14:42.058Z,100549.78
2023-01-12T06:17:09.741Z,100544.56
2023-01-12T06:19:37.649Z,100540.16
2023-01-12T06:22:05.580Z,100537.22
2023-01-12T06:24:33.219Z,100537.38
2023-01-12T06:27:02.498Z,100529.47
2023-01-12T06:29:30.299Z,100531.53
2023-01-12T06:31:58.011Z,100535.56
2023-01-12T06:34:25.758Z,100537.09
2023-01-12T06:36:53.468Z,100536.53
2023-01-12T06:39:21.134Z,100548.53
2023-01-12T06:42:06.427Z,100549.59
2023-01-12T06:44:35.548Z,100545.97
2023-01-12T06:47:03.388Z,100528.09
2023-01-12T06:49:31.131Z,100519.66
2023-01-12T06:51:58.846Z,100509.41
2023-01-12T06:54:26.613Z,100514.72
2023-01-12T06:56:55.345Z,100505.31
2023-01-12T06:59:23.076Z,100507.44
2023-01-12T07:01:52.415Z,100501.13
2023-01-12T07:04:20.228Z,100493.09
2023-01-12T07:06:48.260Z,100507.34
2023-01-12T07:09:16.064Z,100503.72
2023-01-12T07:11:43.900Z,100488.53
2023-01-12T07:14:11.599Z,100485.34
2023-01-12T07:16:40.226Z,100486.94
2023-01-12T07:19:09.561Z,100507.31
2023-01-12T07:21:37.298Z,100506.94
2023-01-12T07:24:05.128Z,100517.44
2023-01-12T07:26:33.058Z,100513.38
2023-01-12T07:29:00.786Z,100515.72
2023-01-12T07:31:28.909Z,100516.72
2023-01-12T07:33:56.714Z,100507.38
2023-01-12T07:36:26.719Z,100495.41
2023-01-12T07:38:54.644Z,100483.72
2023-01-12T07:41:39.709Z,100489.31
2023-01-12T07:44:07.404Z,100488.88
2023-01-12T07:46:35.633Z,100497.84
2023-01-12T07:49:03.441Z,100489.91
2023-01-12T07:51:32.511Z,100487.25
2023-01-12T07:54:00.271Z,100491.66
2023-01-12T07:56:29.323Z,100471.81
2023-01-12T07:58:57.638Z,100484.38
2023-01-12T08:01:25.667Z,100483.03
2023-01-12T08:03:53.625Z,100481.94
2023-01-12T08:06:21.339Z,100470.94
2023-01-12T08:08:51.196Z,100460.19
2023-01-12T08:11:19.153Z,100466.03
2023-01-12T08:13:46.900Z,100474.00
2023-01-12T08:16:19.688Z,100476.94
2023-01-12T08:18:53.717Z,100486.66
2023-01-12T08:21:25.427Z,100485.91
2023-01-12T08:23:57.654Z,100488.28
2023-01-12T08:26:30.244Z,100492.69
2023-01-12T08:29:03.831Z,100488.50
2023-01-12T08:31:33.639Z,100488.75
2023-01-12T08:34:11.441Z,100488.38
2023-01-12T08:36:44.158Z,100484.41
2023-01-12T08:39:13.774Z,100478.97
2023-01-12T08:41:42.353Z,100477.63
2023-01-12T08:44:11.248Z,100483.16
2023-01-12T08:46:41.328Z,100478.31
2023-01-12T08:49:11.891Z,100475.22
2023-01-12T08:51:45.604Z,100479.53
2023-01-12T08:54:18.991Z,100490.81
2023-01-12T08:56:47.083Z,100482.84
2023-01-12T08:59:14.946Z,100486.75
2023-01-12T09:01:43.386Z,100489.09
2023-01-12T09:04:11.184Z,100477.34
2023-01-12T09:06:40.943Z,100492.44
2023-01-12T09:09:10.877Z,100496.00
2023-01-12T09:11:43.491Z,100495.16
2023-01-12T09:14:11.622Z,100499.03
2023-01-12T09:16:39.636Z,100499.34
2023-01-12T09:19:08.376Z,100502.97
2023-01-12T09:21:38.784Z,100508.28
2023-01-12T09:24:07.345Z,100522.09
2023-01-12T09:26:39.368Z,100517.31
2023-01-12T09:29:09.531Z,100507.16
2023-01-12T09:31:38.708Z,100509.94
2023-01-12T09:34:06.410Z,100519.72
2023-01-12T09:36:37.041Z,100509.66
2023-01-12T09:39:06.162Z,100508.50
2023-01-12T09:41:55.897Z,100506.16
2023-01-12T09:44:47.048Z,100496.38
2023-01-12T09:47:22.755Z,100495.09
2023-01-12T09:50:01.369Z,100503.13
2023-01-12T09:52:40.420Z,100505.47
2023-01-12T09:55:15.935Z,100496.69
2023-01-12T09:58:06.765Z,100505.84
2023-01-12T10:00:35.927Z,100500.47
2023-01-12T10:03:25.686Z,100501.69
2023-01-12T10:05:55.728Z,100520.34
2023-01-12T10:08:32.666Z,100513.88
2023-01-12T10:11:11.484Z,100514.41
2023-01-12T10:14:03.259Z,100500.00
2023-01-12T10:16:39.325Z,100503.16
2023-01-12T10:19:15.854Z,100499.63
2023-01-12T10:21:44.415Z,100497.34
2023-01-12T10:24:13.583Z,100489.75
2023-01-12T10:26:44.325Z,100501.75
2023-01-12T10:29:13.155Z,100492.78
2023-01-12T10:31:42.292Z,100498.41
2023-01-12T10:34:14.108Z,100486.41
2023-01-12T10:36:49.246Z,100494.47
2023-01-12T10:39:34.921Z,100485.47
2023-01-12T10:42:40.895Z,100473.88
2023-01-12T10:45:17.348Z,100475.78
2023-01-12T10:47:47.848Z,100476.53
2023-01-12T10:50:27.968Z,100484.91
2023-01-12T10:53:01.086Z,100481.41
2023-01-12T10:55:33.426Z,100478.91
2023-01-12T10:58:01.836Z,100488.75
2023-01-12T11:00:30.723Z,100496.63
2023-01-12T11:02:59.891Z,100488.81
2023-01-12T11:05:31.352Z,100500.41
2023-01-12T11:07:59.691Z,100493.78
2023-01-12T11:10:30.387Z,100492.94
2023-01-12T11:12:59.869Z,100501.19
2023-01-12T11:15:29.622Z,100507.50
2023-01-12T11:18:17.253Z,100500.56
2023-01-12T11:20:50.030Z,100499.59
2023-01-12T11:23:24.947Z,100491.47
2023-01-12T11:25:54.271Z,100490.56
2023-01-12T11:28:29.244Z,100484.56
2023-01-12T11:31:01.904Z,100474.19
2023-01-12T11:33:37.691Z,100474.69
2023-01-12T11:36:07.823Z,100475.22
2023-01-12T11:38:38.955Z,100476.59
2023-01-12T11:41:11.019Z,100473.63
2023-01-12T11:43:55.860Z,100462.19
2023-01-12T11:46:27.813Z,100455.03
2023-01-12T11:49:04.262Z,100448.19
2023-01-12T11:51:32.119Z,100448.19
2023-01-12T11:54:00.466Z,100448.16
2023-01-12T11:57:09.435Z,100457.50
2023-01-12T11:59:42.628Z,100441.84
2023-01-12T12:02:32.942Z,100433.19
2023-01-12T12:05:10.433Z,100434.38
2023-01-12T12:07:55.984Z,100440.63
2023-01-12T12:10:27.888Z,100443.44
2023-01-12T12:13:27.277Z,100428.84
2023-01-12T12:16:06.017Z,100420.56
2023-01-12T12:18:47.009Z,100429.50
2023-01-12T12:21:27.004Z,100433.53
2023-01-12T12:24:03.784Z,100432.31
2023-01-12T12:26:36.474Z,100434.47
2023-01-12T12:29:19.311Z,100433.13
2023-01-12T12:32:07.549Z,100426.84
2023-01-12T12:34:51.618Z,100421.88
2023-01-12T12:37:34.213Z,100433.16
2023-01-12T12:40:11.196Z,100424.78
2023-01-12T12:43:10.567Z,100424.25
2023-01-12T12:45:46.630Z,100427.69
2023-01-12T12:48:17.184Z,100426.56
2023-01-12T12:50:51.088Z,100423.25
2023-01-12T12:53:26.442Z,100426.28
2023-01-12T12:55:58.749Z,100422.78
2023-01-12T12:58:45.853Z,100413.31
2023-01-12T13:01:39.513Z,100418.31
2023-01-12T13:04:09.596Z,100431.63
2023-01-12T13:06:39.399Z,100421.66
2023-01-12T13:09:38.059Z,100401.09
2023-01-12T13:12:32.002Z,100398.78
2023-01-12T13:15:20.325Z,100392.78
2023-01-12T13:17:50.120Z,100395.44
2023-01-12T13:21:02.321Z,100379.50
2023-01-12T13:23:52.309Z,100381.16
2023-01-12T13:26:52.254Z,100363.25
2023-01-12T13:29:50.483Z,100365.25
2023-01-12T13:32:42.915Z,100358.91
2023-01-12T13:35:53.133Z,100377.13
2023-01-12T13:38:33.434Z,100366.38
2023-01-12T13:41:17.701Z,100361.88
2023-01-12T13:43:53.785Z,100353.91
2023-01-12T13:46:24.913Z,100357.72
2023-01-12T13:48:54.489Z,100359.75
2023-01-12T13:51:26.725Z,100360.06
2023-01-12T13:54:01.847Z,100349.63
2023-01-12T13:56:29.733Z,100364.91
2023-01-12T13:59:02.238Z,100364.75
2023-01-12T14:01:34.314Z,100364.13
2023-01-12T14:04:22.720Z,100370.59
2023-01-12T14:07:01.068Z,100369.41
2023-01-12T14:09:41.294Z,100372.84
2023-01-12T14:12:36.322Z,100374.88
2023-01-12T14:15:43.868Z,100369.34
2023-01-12T14:18:15.337Z,100365.53
2023-01-12T14:20:48.019Z,100371.03
2023-01-12T14:23:19.059Z,100369.19
2023-01-12T14:25:47.622Z,100380.69
2023-01-12T14:28:19.646Z,100369.34
2023-01-12T14:30:52.106Z,100371.69
2023-01-12T14:33:21.816Z,100374.88
2023-01-12T14:35:54.747Z,100379.19
2023-01-12T14:38:25.748Z,100372.50
2023-01-12T14:41:00.095Z,100377.81
2023-01-12T14:43:48.717Z,100385.13
2023-01-12T14:46:26.516Z,100374.66
2023-01-12T14:49:00.250Z,100374.88
2023-01-12T14:51:32.342Z,100382.63
2023-01-12T14:54:03.049Z,100383.81
2023-01-12T14:56:38.754Z,100375.69
2023-01-12T14:59:08.961Z,100372.19
2023-01-12T15:01:40.035Z,100369.34
2023-01-12T15:04:14.840Z,100368.56
2023-01-12T15:06:44.961Z,100373.53
2023-01-12T15:09:27.331Z,100377.53
2023-01-12T15:11:55.055Z,100363.84
2023-01-12T15:14:26.045Z,100364.69
2023-01-12T15:17:13.742Z,100344.25
2023-01-12T15:19:59.189Z,100339.47
2023-01-12T15:22:46.172Z,100349.25
2023-01-12T15:25:34.501Z,100344.25
2023-01-12T15:28:02.584Z,100338.91
2023-01-12T15:30:31.416Z,100330.47
2023-01-12T15:33:00.808Z,100337.63
2023-01-12T15:35:30.289Z,100351.41
2023-01-12T15:37:59.384Z,100336.59
2023-01-12T15:40:29.820Z,100343.28
2023-01-12T15:42:59.144Z,100338.44
2023-01-12T15:45:34.432Z,100335.59
2023-01-12T15:48:04.079Z,100332.47
2023-01-12T15:50:32.463Z,100341.91
2023-01-12T15:53:01.664Z,100337.28
2023-01-12T15:55:31.319Z,100330.97
2023-01-12T15:57:59.133Z,100343.56
2023-01-12T16:00:26.939Z,100336.25
2023-01-12T16:02:54.709Z,100334.28
2023-01-12T16:05:26.262Z,100342.59
2023-01-12T16:07:54.546Z,100337.94
2023-01-12T16:10:22.597Z,100341.91
2023-01-12T16:12:50.542Z,100341.75
2023-01-12T16:15:20.341Z,100346.44
2023-01-12T16:17:48.739Z,100341.28
2023-01-12T16:20:18.184Z,100334.28
2023-01-12T16:22:47.752Z,100338.91
2023-01-12T16:25:16.291Z,100341.28
2023-01-12T16:27:44.355Z,100340.28
2023-01-12T16:30:16.379Z,100339.44
2023-01-12T16:32:46.593Z,100348.56
2023-01-12T16:35:15.781Z,100343.91
2023-01-12T16:37:44.726Z,100339.59
2023-01-12T16:40:16.103Z,100338.91
2023-01-12T16:42:43.888Z,100339.56
2023-01-12T16:45:12.027Z,100336.56
2023-01-12T16:47:39.736Z,100324.63
2023-01-12T16:50:08.467Z,100336.56
2023-01-12T16:52:36.413Z,100343.38
2023-01-12T16:55:04.857Z,100339.22
2023-01-12T16:57:37.358Z,100324.63
2023-01-12T17:00:05.953Z,100329.44
2023-01-12T17:02:34.068Z,100329.28
2023-01-12T17:05:02.254Z,100335.59
2023-01-12T17:07:30.123Z,100315.97
2023-01-12T17:09:59.139Z,100320.63
2023-01-12T17:12:27.100Z,100321.16
2023-01-12T17:14:56.637Z,100314.34
2023-01-12T17:17:24.401Z,100313.69
2023-01-12T17:19:52.988Z,100312.03
2023-01-12T17:22:21.347Z,100304.38
2023-01-12T17:24:49.175Z,100301.41
2023-01-12T17:27:17.093Z,100305.41
2023-01-12T17:29:45.142Z,100303.91
2023-01-12T17:32:15.371Z,100301.06
2023-01-12T17:34:43.815Z,100306.03
2023-01-12T17:37:12.058Z,100323.09
2023-01-12T17:39:41.388Z,100312.31
2023-01-12T17:42:28.720Z,100307.13
2023-01-12T17:44:56.538Z,100314.28
2023-01-12T17:47:25.718Z,100315.25
2023-01-12T17:49:55.157Z,100310.78
2023-01-12T17:52:23.067Z,100307.31
2023-01-12T17:54:50.765Z,100329.50
2023-01-12T17:57:18.515Z,100317.69
2023-01-12T17:59:46.499Z,100333.31
2023-01-12T18:02:15.217Z,100315.06
2023-01-12T18:04:44.546Z,100315.91
2023-01-12T18:07:12.309Z,100319.56
2023-01-12T18:09:41.859Z,100316.25
2023-01-12T18:12:12.393Z,100300.69
2023-01-12T18:14:40.305Z,100297.38
2023-01-12T18:17:09.279Z,100285.59
2023-01-12T18:19:37.126Z,100287.75
2023-01-12T18:22:07.163Z,100295.41
2023-01-12T18:24:35.214Z,100294.72
2023-01-12T18:27:03.470Z,100301.03
2023-01-12T18:29:34.180Z,100301.03
2023-01-12T18:32:01.957Z,100293.06
2023-01-12T18:34:30.125Z,100291.09
2023-01-12T18:36:57.885Z,100300.41
2023-01-12T18:39:27.084Z,100293.06
2023-01-12T18:42:12.663Z,100284.47
2023-01-12T18:44:40.425Z,100295.13
2023-01-12T18:47:26.015Z,100295.44
2023-01-12T18:49:57.475Z,100302.25
2023-01-12T18:52:44.719Z,100291.78
2023-01-12T18:55:13.787Z,100299.75
2023-01-12T18:57:41.508Z,100300.06
2023-01-12T19:00:15.739Z,100297.09
2023-01-12T19:02:43.788Z,100294.78
2023-01-12T19:05:20.531Z,100296.44
2023-01-12T19:08:04.494Z,100289.16
2023-01-12T19:10:34.249Z,100286.81
2023-01-12T19:13:19.646Z,100296.44
2023-01-12T19:16:05.182Z,100287.44
2023-01-12T19:18:35.547Z,100272.34
2023-01-12T19:21:17.153Z,100282.16
2023-01-12T19:24:02.169Z,100290.63
2023-01-12T19:26:48.822Z,100284.13
2023-01-12T19:29:16.707Z,100286.47
2023-01-12T19:31:44.508Z,100284.94
2023-01-12T19:34:12.252Z,100276.16
2023-01-12T19:36:40.932Z,100278.97
2023-01-12T19:39:10.400Z,100272.66
2023-01-12T19:41:57.158Z,100269.16
2023-01-12T19:44:24.893Z,100257.53
2023-01-12T19:46:52.617Z,100260.19
2023-01-12T19:49:20.651Z,100253.22
2023-01-12T19:51:48.741Z,100245.25
2023-01-12T19:54:16.469Z,100252.59
2023-01-12T19:56:47.524Z,100249.09
2023-01-12T19:59:15.365Z,100243.09
2023-01-12T20:01:43.141Z,100225.16
2023-01-12T20:04:10.841Z,100226.97
2023-01-12T20:06:38.520Z,100237.91
2023-01-12T20:09:06.201Z,100236.91
2023-01-12T20:11:33.985Z,100241.88
2023-01-12T20:14:03.067Z,100228.25
2023-01-12T20:16:30.873Z,100233.56
2023-01-12T20:18:59.559Z,100241.84
2023-01-12T20:21:27.243Z,100213.47
2023-01-12T20:23:54.940Z,100214.13
2023-01-12T20:26:22.686Z,100201.38
2023-01-12T20:28:50.376Z,100204.69
2023-01-12T20:31:21.045Z,100201.22
2023-01-12T20:33:49.031Z,100214.31
2023-01-12T20:36:18.654Z,100209.34
2023-01-12T20:38:47.301Z,100219.47
2023-01-12T20:41:15.054Z,100215.34
2023-01-12T20:43:42.717Z,100210.50
2023-01-12T20:46:11.826Z,100205.38
2023-01-12T20:48:42.601Z,100209.34
2023-01-12T20:51:12.259Z,100192.56
2023-01-12T20:53:40.366Z,100207.03
2023-01-12T20:56:09.526Z,100204.38
2023-01-12T20:58:37.687Z,100204.22
2023-01-12T21:01:10.524Z,100202.91
2023-01-12T21:03:38.805Z,100206.03
2023-01-12T21:06:11.057Z,100214.38
2023-01-12T21:08:39.409Z,100204.38
2023-01-12T21:11:07.682Z,100207.03
2023-01-12T21:13:35.639Z,100211.03
2023-01-12T21:16:06.824Z,100217.03
2023-01-12T21:18:35.699Z,100203.22
2023-01-12T21:21:04.059Z,100195.41
2023-01-12T21:23:33.342Z,100210.22
2023-01-12T21:26:01.201Z,100190.28
2023-01-12T21:28:30.402Z,100195.91
2023-01-12T21:31:01.383Z,100193.75
2023-01-12T21:33:29.129Z,100193.09
2023-01-12T21:35:57.246Z,100191.59
2023-01-12T21:38:25.503Z,100192.44
2023-01-12T21:40:55.015Z,100190.44
2023-01-12T21:43:23.010Z,100181.44
2023-01-12T21:45:52.981Z,100173.81
2023-01-12T21:48:22.871Z,100180.28
2023-01-12T21:50:50.787Z,100185.28
2023-01-12T21:53:21.104Z,100183.63
2023-01-12T21:55:57.036Z,100186.13
2023-01-12T21:58:25.645Z,100184.94
2023-01-12T22:00:53.856Z,100188.09
2023-01-12T22:03:24.992Z,100187.09
2023-01-12T22:05:52.731Z,100181.94
2023-01-12T22:08:20.665Z,100191.91
2023-01-12T22:10:48.453Z,100177.47
2023-01-12T22:13:18.663Z,100176.94
2023-01-12T22:15:50.797Z,100182.25
2023-01-12T22:18:18.538Z,100181.13
2023-01-12T22:20:46.278Z,100181.44
2023-01-12T22:23:14.199Z,100172.47
2023-01-12T22:25:41.944Z,100174.97
2023-01-12T22:28:09.638Z,100172.47
2023-01-12T22:30:38.657Z,100177.78
2023-01-12T22:33:06.327Z,100176.47
2023-01-12T22:35:34.554Z,100174.44
2023-01-12T22:38:02.321Z,100177.47
2023-01-12T22:40:30.435Z,100187.41
2023-01-12T22:43:15.689Z,100182.09
2023-01-12T22:45:44.859Z,100182.09
2023-01-12T22:48:12.537Z,100177.47
2023-01-12T22:50:40.287Z,100159.34
2023-01-12T22:53:07.963Z,100167.66
2023-01-12T22:55:35.741Z,100161.16
2023-01-12T22:58:03.459Z,100165.34
2023-01-12T23:00:31.271Z,100152.72
2023-01-12T23:03:03.250Z,100151.88
2023-01-12T23:05:35.153Z,100152.19
2023-01-12T23:08:03.803Z,100137.91
2023-01-12T23:10:31.525Z,100136.63
2023-01-12T23:13:15.950Z,100146.72
2023-01-12T23:15:46.520Z,100144.59
2023-01-12T23:18:17.117Z,100142.91
2023-01-12T23:20:44.993Z,100126.63
2023-01-12T23:23:13.122Z,100133.59
2023-01-12T23:25:44.532Z,100136.94
2023-01-12T23:28:14.135Z,100143.59
2023-01-12T23:30:42.148Z,100133.78
2023-01-12T23:33:10.809Z,100134.09
2023-01-12T23:35:42.038Z,100130.78
2023-01-12T23:38:15.167Z,100123.81
2023-01-12T23:40:43.214Z,100131.13
2023-01-12T23:43:10.989Z,100132.94
2023-01-12T23:45:38.672Z,100127.63
2023-01-12T23:48:07.795Z,100129.78
2023-01-12T23:50:35.604Z,100131.13
2023-01-12T23:53:05.000Z,100127.63
2023-01-12T23:55:32.745Z,100111.03
2023-01-12T23:58:00.478Z,100114.00
